Steinhatchee, Florida
Current Conditions -  °F | °C
As of 11:35 AM on Monday 26 Jan 2015 (Local Time) from K40J Reporting Station
Scattered Clouds Scattered Clouds  
Wind Chill: 56°   Ceiling: Unl
Heat Index: 56°   Visibility: 10mi
Dew Point: 40°   Wind: 17mph
Humidity: 55%   Direction: 280°W
Pressure: 29.93"   Gusts: NA
Location:  29.67°N, 83.39°W
Report Text: K40J 261635Z AUTO 28015KT 10SM SCT038 SCT043 14/05 A2993 RMK AO2 T01360047
Loading
Personal Weather Stations






























Interactive Weather Map New forecast layout! Learn more

10-Day Weather Forecast

Advertisements
Track Severe Weather on mobile